La Bruyere, Belgium
Current Conditions -  °F | °C
As of 6:20 PM on Tuesday 21 Oct 2014 (Local Time) from EBCI Reporting Station
Rain Showers Rain Showers  
Wind Chill: 41°   Ceiling: Unl
Heat Index: 46°   Visibility: 6mi
Dew Point: 41°   Wind: 13mph
Humidity: 81%   Direction: 270°W
Pressure: 29.74"   Gusts: NA
Location:  50.39°N, 4.61°E
Report Text: EBCI 211620Z 27011KT 240V310 9999 VCSH FEW022 SCT042 08/05 Q1007 TEMPO 27015G25KT
Loading
Personal Weather Stations






























Interactive Weather Map
Tropical Storm Tracking
New forecast layout! Learn more

10-Day Weather Forecast

Advertisements
Track Severe Weather on mobile